createdAt,value
2022-11-26T00:01:22.845Z,6.10
2022-11-26T00:03:52.463Z,5.87
2022-11-26T00:06:30.832Z,5.07
2022-11-26T00:09:00.602Z,5.60
2022-11-26T00:11:30.346Z,5.37
2022-11-26T00:13:58.766Z,5.37
2022-11-26T00:16:29.287Z,6.30
2022-11-26T00:18:57.712Z,6.40
2022-11-26T00:21:27.918Z,6.83
2022-11-26T00:23:56.556Z,7.10
2022-11-26T00:26:26.355Z,6.83
2022-11-26T00:29:00.201Z,6.77
2022-11-26T00:31:30.075Z,7.10
2022-11-26T00:33:58.493Z,6.03
2022-11-26T00:36:31.735Z,6.57
2022-11-26T00:39:05.953Z,5.97
2022-11-26T00:41:38.202Z,6.17
2022-11-26T00:44:19.311Z,6.87
2022-11-26T00:46:47.847Z,6.53
2022-11-26T00:49:16.631Z,6.10
2022-11-26T00:51:46.062Z,6.30
2022-11-26T00:54:18.536Z,6.93
2022-11-26T00:56:47.593Z,5.93
2022-11-26T00:59:21.432Z,6.70
2022-11-26T01:01:50.504Z,5.90
2022-11-26T01:04:19.018Z,6.13
2022-11-26T01:06:47.953Z,6.57
2022-11-26T01:09:20.622Z,6.50
2022-11-26T01:11:53.861Z,5.47
2022-11-26T01:14:24.742Z,5.67
2022-11-26T01:16:56.656Z,6.73
2022-11-26T01:19:25.138Z,6.43
2022-11-26T01:21:53.541Z,6.40
2022-11-26T01:24:21.980Z,6.40
2022-11-26T01:26:50.337Z,6.13
2022-11-26T01:29:20.302Z,6.50
2022-11-26T01:31:50.340Z,6.10
2022-11-26T01:34:18.783Z,6.33
2022-11-26T01:36:47.165Z,6.80
2022-11-26T01:39:18.868Z,5.73
2022-11-26T01:41:54.241Z,5.87
2022-11-26T01:44:25.807Z,5.70
2022-11-26T01:46:56.346Z,5.67
2022-11-26T01:49:33.696Z,5.57
2022-11-26T01:52:06.357Z,5.30
2022-11-26T01:54:38.429Z,5.07
2022-11-26T01:57:11.704Z,5.77
2022-11-26T01:59:43.799Z,5.33
2022-11-26T02:02:13.854Z,5.63
2022-11-26T02:04:47.229Z,5.60
2022-11-26T02:07:16.405Z,5.83
2022-11-26T02:09:45.209Z,5.77
2022-11-26T02:12:14.026Z,5.93
2022-11-26T02:14:45.376Z,5.33
2022-11-26T02:17:21.800Z,5.60
2022-11-26T02:20:43.065Z,5.73
2022-11-26T02:23:54.399Z,5.40
2022-11-26T02:27:02.458Z,6.37
2022-11-26T02:29:58.720Z,5.90
2022-11-26T02:32:32.965Z,6.23
2022-11-26T02:35:08.388Z,6.27
2022-11-26T02:37:48.814Z,6.20
2022-11-26T02:40:17.516Z,6.43
2022-11-26T02:42:45.925Z,6.43
2022-11-26T02:45:20.107Z,5.57
2022-11-26T02:47:53.820Z,6.83
2022-11-26T02:50:26.179Z,6.07
2022-11-26T02:52:58.767Z,6.03
2022-11-26T02:55:31.356Z,5.87
2022-11-26T02:58:00.686Z,6.10
2022-11-26T03:00:32.019Z,6.03
2022-11-26T03:03:05.384Z,5.90
2022-11-26T03:05:37.298Z,5.73
2022-11-26T03:08:08.165Z,6.20
2022-11-26T03:10:36.691Z,6.47
2022-11-26T03:13:05.067Z,6.10
2022-11-26T03:15:34.844Z,7.00
2022-11-26T03:18:03.347Z,6.07
2022-11-26T03:20:31.718Z,5.93
2022-11-26T03:23:00.190Z,7.20
2022-11-26T03:25:28.564Z,6.33
2022-11-26T03:27:57.450Z,6.73
2022-11-26T03:30:26.047Z,6.27
2022-11-26T03:32:56.020Z,6.33
2022-11-26T03:35:24.692Z,6.10
2022-11-26T03:37:53.140Z,6.27
2022-11-26T03:40:21.617Z,6.63
2022-11-26T03:42:50.008Z,6.00
2022-11-26T03:45:18.489Z,6.30
2022-11-26T03:47:46.920Z,6.37
2022-11-26T03:50:16.859Z,6.27
2022-11-26T03:52:45.246Z,6.10
2022-11-26T03:55:13.609Z,5.93
2022-11-26T03:57:42.019Z,6.60
2022-11-26T04:00:12.428Z,5.83
2022-11-26T04:02:40.925Z,6.23
2022-11-26T04:05:10.114Z,6.17
2022-11-26T04:07:39.912Z,5.57
2022-11-26T04:10:10.050Z,5.83
2022-11-26T04:12:38.531Z,5.80
2022-11-26T04:15:08.357Z,6.17
2022-11-26T04:17:36.728Z,5.97
2022-11-26T04:20:07.178Z,6.03
2022-11-26T04:22:35.530Z,5.57
2022-11-26T04:25:06.436Z,5.70
2022-11-26T04:27:34.961Z,5.47
2022-11-26T04:30:03.404Z,6.07
2022-11-26T04:32:31.829Z,5.70
2022-11-26T04:35:00.242Z,5.70
2022-11-26T04:37:28.611Z,5.53
2022-11-26T04:39:57.022Z,5.60
2022-11-26T04:42:26.880Z,6.07
2022-11-26T04:44:55.264Z,5.60
2022-11-26T04:47:23.686Z,6.03
2022-11-26T04:49:52.078Z,5.97
2022-11-26T04:52:20.627Z,5.77
2022-11-26T04:54:49.111Z,5.87
2022-11-26T04:57:17.527Z,6.00
2022-11-26T04:59:47.235Z,5.67
2022-11-26T05:02:15.769Z,6.40
2022-11-26T05:04:44.261Z,5.50
2022-11-26T05:07:12.773Z,5.13
2022-11-26T05:09:41.196Z,5.70
2022-11-26T05:12:11.223Z,5.23
2022-11-26T05:14:39.936Z,5.43
2022-11-26T05:17:09.926Z,5.70
2022-11-26T05:19:38.672Z,5.37
2022-11-26T05:22:07.078Z,5.40
2022-11-26T05:24:35.576Z,5.47
2022-11-26T05:27:04.065Z,5.23
2022-11-26T05:29:33.320Z,5.30
2022-11-26T05:32:01.819Z,4.77
2022-11-26T05:34:31.812Z,5.57
2022-11-26T05:37:00.160Z,4.90
2022-11-26T05:39:28.760Z,5.33
2022-11-26T05:41:57.157Z,4.90
2022-11-26T05:44:25.572Z,5.03
2022-11-26T05:46:53.956Z,4.70
2022-11-26T05:49:22.365Z,5.27
2022-11-26T05:51:52.167Z,6.40
2022-11-26T05:54:20.698Z,5.40
2022-11-26T05:56:49.200Z,6.60
2022-11-26T05:59:17.576Z,5.60
2022-11-26T06:01:46.090Z,5.77
2022-11-26T06:04:14.448Z,6.13
2022-11-26T06:06:42.872Z,6.03
2022-11-26T06:09:13.770Z,6.63
2022-11-26T06:11:42.152Z,6.50
2022-11-26T06:14:10.709Z,5.77
2022-11-26T06:16:39.275Z,8.50
2022-11-26T06:19:07.638Z,7.87
2022-11-26T06:21:36.076Z,9.23
2022-11-26T06:24:04.831Z,8.90
2022-11-26T06:26:34.705Z,8.00
2022-11-26T06:29:03.117Z,8.17
2022-11-26T06:31:32.807Z,8.17
2022-11-26T06:34:01.304Z,6.90
2022-11-26T06:36:29.698Z,6.77
2022-11-26T06:38:58.066Z,7.13
2022-11-26T06:41:26.480Z,7.60
2022-11-26T06:43:56.272Z,7.30
2022-11-26T06:46:24.671Z,9.40
2022-11-26T06:48:53.058Z,8.60
2022-11-26T06:51:27.682Z,9.50
2022-11-26T06:53:56.246Z,10.13
2022-11-26T06:56:24.687Z,11.23
2022-11-26T06:58:56.122Z,10.23
2022-11-26T07:01:27.290Z,8.70
2022-11-26T07:03:56.107Z,9.50
2022-11-26T07:06:26.945Z,7.93
2022-11-26T07:08:58.426Z,5.97
2022-11-26T07:11:27.774Z,6.20
2022-11-26T07:13:58.257Z,5.60
2022-11-26T07:16:27.056Z,6.50
2022-11-26T07:19:02.756Z,6.80
2022-11-26T07:21:32.305Z,6.10
2022-11-26T07:24:00.913Z,6.93
2022-11-26T07:26:29.388Z,7.67
2022-11-26T07:28:59.316Z,7.97
2022-11-26T07:31:27.825Z,8.13
2022-11-26T07:33:57.760Z,8.27
2022-11-26T07:36:29.877Z,9.23
2022-11-26T07:39:00.652Z,9.13
2022-11-26T07:41:30.324Z,7.33
2022-11-26T07:44:00.044Z,8.10
2022-11-26T07:46:28.997Z,6.97
2022-11-26T07:48:58.487Z,7.07
2022-11-26T07:51:29.410Z,6.03
2022-11-26T07:53:59.540Z,7.00
2022-11-26T07:56:28.509Z,5.73
2022-11-26T07:58:57.199Z,5.40
2022-11-26T08:01:29.735Z,5.37
2022-11-26T08:03:59.611Z,5.60
2022-11-26T08:06:30.525Z,6.10
2022-11-26T08:09:02.230Z,5.70
2022-11-26T08:11:32.948Z,5.90
2022-11-26T08:14:03.129Z,5.10
2022-11-26T08:16:33.584Z,5.60
2022-11-26T08:19:07.312Z,5.73
2022-11-26T08:21:36.339Z,5.43
2022-11-26T08:24:05.178Z,5.83
2022-11-26T08:26:39.721Z,5.63
2022-11-26T08:29:12.338Z,5.17
2022-11-26T08:31:46.140Z,5.73
2022-11-26T08:34:16.712Z,5.40
2022-11-26T08:36:46.133Z,5.67
2022-11-26T08:39:15.749Z,5.57
2022-11-26T08:41:50.276Z,5.17
2022-11-26T08:44:21.000Z,5.77
2022-11-26T08:46:51.344Z,5.43
2022-11-26T08:49:19.869Z,5.53
2022-11-26T08:51:49.690Z,5.43
2022-11-26T08:54:18.392Z,5.40
2022-11-26T08:56:46.957Z,5.93
2022-11-26T08:59:16.297Z,5.73
2022-11-26T09:01:44.972Z,7.30
2022-11-26T09:04:14.993Z,6.37
2022-11-26T09:06:43.729Z,5.27
2022-11-26T09:09:15.575Z,5.83
2022-11-26T09:11:47.986Z,5.63
2022-11-26T09:14:19.311Z,7.00
2022-11-26T09:16:48.080Z,6.00
2022-11-26T09:19:19.274Z,6.83
2022-11-26T09:21:48.312Z,6.20
2022-11-26T09:24:17.986Z,6.17
2022-11-26T09:26:48.323Z,6.17
2022-11-26T09:29:19.605Z,6.27
2022-11-26T09:32:15.856Z,6.27
2022-11-26T09:34:39.701Z,6.00
2022-11-26T09:37:08.458Z,4.97
2022-11-26T09:39:38.739Z,7.03
2022-11-26T09:42:10.732Z,7.47
2022-11-26T09:45:09.377Z,7.33
2022-11-26T09:47:41.931Z,7.70
2022-11-26T09:50:26.133Z,7.17
2022-11-26T09:53:00.873Z,7.87
2022-11-26T09:55:32.511Z,7.87
2022-11-26T09:58:12.888Z,10.03
2022-11-26T10:00:45.375Z,9.67
2022-11-26T10:03:17.067Z,8.03
2022-11-26T10:05:55.194Z,8.00
2022-11-26T10:08:52.565Z,8.80
2022-11-26T10:11:29.489Z,8.87
2022-11-26T10:14:24.284Z,7.30
2022-11-26T10:17:10.599Z,7.87
2022-11-26T10:19:49.512Z,7.03
2022-11-26T10:22:26.172Z,6.83
2022-11-26T10:24:57.522Z,6.20
2022-11-26T10:27:31.965Z,6.33
2022-11-26T10:30:03.167Z,7.23
2022-11-26T10:32:38.930Z,6.47
2022-11-26T10:35:08.388Z,7.40
2022-11-26T10:37:38.225Z,7.53
2022-11-26T10:40:25.505Z,7.37
2022-11-26T10:43:05.116Z,7.77
2022-11-26T10:45:40.687Z,6.87
2022-11-26T10:48:25.000Z,7.50
2022-11-26T10:51:03.704Z,6.80
2022-11-26T10:53:53.629Z,6.27
2022-11-26T10:56:25.254Z,7.60
2022-11-26T10:58:55.558Z,6.80
2022-11-26T11:01:24.115Z,5.97
2022-11-26T11:04:11.542Z,6.17
2022-11-26T11:06:44.628Z,21.77
2022-11-26T11:09:31.561Z,12.80
2022-11-26T11:12:23.232Z,10.27
2022-11-26T11:14:53.478Z,8.87
2022-11-26T11:17:35.442Z,9.67
2022-11-26T11:20:27.422Z,12.07
2022-11-26T11:23:18.397Z,11.53
2022-11-26T11:25:59.457Z,10.53
2022-11-26T11:28:30.656Z,11.87
2022-11-26T11:31:06.294Z,11.53
2022-11-26T11:33:34.999Z,10.50
2022-11-26T11:36:07.950Z,8.83
2022-11-26T11:38:49.573Z,10.30
2022-11-26T11:41:29.756Z,8.80
2022-11-26T11:44:07.998Z,11.10
2022-11-26T11:47:14.609Z,10.27
2022-11-26T11:50:01.164Z,10.47
2022-11-26T11:52:41.730Z,10.20
2022-11-26T11:55:25.022Z,10.90
2022-11-26T11:58:19.711Z,10.03
2022-11-26T12:00:57.069Z,10.17
2022-11-26T12:04:19.649Z,10.07
2022-11-26T12:07:23.598Z,10.97
2022-11-26T12:10:02.588Z,10.20
2022-11-26T12:12:34.992Z,10.17
2022-11-26T12:15:14.092Z,11.97
2022-11-26T12:17:49.206Z,9.53
2022-11-26T12:20:28.249Z,10.00
2022-11-26T12:23:09.066Z,10.57
2022-11-26T12:25:41.961Z,10.80
2022-11-26T12:28:17.324Z,11.17
2022-11-26T12:30:54.413Z,11.27
2022-11-26T12:33:33.633Z,9.70
2022-11-26T12:36:09.211Z,11.50
2022-11-26T12:38:43.788Z,12.93
2022-11-26T12:41:18.083Z,16.23
2022-11-26T12:43:54.615Z,15.27
2022-11-26T12:46:33.579Z,14.27
2022-11-26T12:49:13.543Z,19.37
2022-11-26T12:51:48.234Z,16.90
2022-11-26T12:54:23.476Z,18.40
2022-11-26T12:56:59.826Z,14.50
2022-11-26T12:59:34.416Z,16.07
2022-11-26T13:02:21.357Z,13.23
2022-11-26T13:04:50.908Z,11.57
2022-11-26T13:07:37.058Z,13.00
2022-11-26T13:10:21.348Z,13.00
2022-11-26T13:12:59.641Z,13.03
2022-11-26T13:15:35.828Z,12.77
2022-11-26T13:18:10.640Z,13.03
2022-11-26T13:20:56.082Z,13.10
2022-11-26T13:23:44.381Z,12.70
2022-11-26T13:26:40.618Z,10.87
2022-11-26T13:29:52.879Z,16.67
2022-11-26T13:33:04.183Z,11.67
2022-11-26T13:36:08.165Z,11.87
2022-11-26T13:38:50.830Z,15.47
2022-11-26T13:41:33.611Z,14.33
2022-11-26T13:44:41.716Z,12.00
2022-11-26T13:47:14.035Z,11.67
2022-11-26T13:49:48.385Z,10.90
2022-11-26T13:52:26.759Z,10.60
2022-11-26T13:55:02.469Z,13.83
2022-11-26T13:57:41.498Z,10.37
2022-11-26T14:00:12.336Z,10.37
2022-11-26T14:02:44.507Z,9.87
2022-11-26T14:05:16.258Z,8.23
2022-11-26T14:07:47.336Z,6.63
2022-11-26T14:10:43.717Z,6.40
2022-11-26T14:13:19.601Z,7.10
2022-11-26T14:16:00.844Z,7.27
2022-11-26T14:19:00.797Z,7.47
2022-11-26T14:21:31.206Z,7.03
2022-11-26T14:24:02.806Z,6.70
2022-11-26T14:26:37.367Z,6.67
2022-11-26T14:29:17.440Z,7.67
2022-11-26T14:31:52.042Z,6.90
2022-11-26T14:34:30.173Z,7.97
2022-11-26T14:37:00.803Z,9.40
2022-11-26T14:39:31.729Z,8.73
2022-11-26T14:42:06.000Z,7.83
2022-11-26T14:44:35.658Z,7.93
2022-11-26T14:47:14.775Z,7.83
2022-11-26T14:49:49.313Z,7.37
2022-11-26T14:52:24.171Z,8.37
2022-11-26T14:54:57.527Z,7.97
2022-11-26T14:57:34.451Z,7.93
2022-11-26T15:00:06.386Z,7.93
2022-11-26T15:02:40.955Z,8.20
2022-11-26T15:05:17.937Z,7.43
2022-11-26T15:07:47.766Z,7.30
2022-11-26T15:10:23.169Z,6.87
2022-11-26T15:12:54.079Z,8.00
2022-11-26T15:15:24.408Z,8.10
2022-11-26T15:17:57.698Z,7.90
2022-11-26T15:20:27.357Z,7.77
2022-11-26T15:22:58.997Z,8.17
2022-11-26T15:25:31.022Z,7.50
2022-11-26T15:28:01.516Z,7.57
2022-11-26T15:30:32.837Z,8.50
2022-11-26T15:33:03.455Z,15.87
2022-11-26T15:35:33.330Z,10.37
2022-11-26T15:38:02.045Z,10.60
2022-11-26T15:40:46.609Z,11.20
2022-11-26T15:43:24.034Z,10.00
2022-11-26T15:45:56.825Z,11.23
2022-11-26T15:48:50.826Z,11.30
2022-11-26T15:51:27.367Z,7.70
2022-11-26T15:53:58.507Z,6.70
2022-11-26T15:56:33.009Z,7.87
2022-11-26T15:59:04.608Z,7.17
2022-11-26T16:01:36.383Z,7.17
2022-11-26T16:04:38.223Z,8.13
2022-11-26T16:07:12.534Z,7.67
2022-11-26T16:09:41.606Z,8.57
2022-11-26T16:12:28.946Z,8.10
2022-11-26T16:15:22.072Z,11.43
2022-11-26T16:17:51.881Z,9.03
2022-11-26T16:20:24.265Z,10.20
2022-11-26T16:22:56.777Z,9.33
2022-11-26T16:25:27.395Z,8.20
2022-11-26T16:28:14.737Z,7.37
2022-11-26T16:30:45.268Z,7.50
2022-11-26T16:33:13.691Z,7.60
2022-11-26T16:35:45.729Z,7.23
2022-11-26T16:38:21.243Z,7.43
2022-11-26T16:40:50.121Z,7.63
2022-11-26T16:43:19.946Z,6.93
2022-11-26T16:45:49.874Z,6.93
2022-11-26T16:48:25.454Z,7.13
2022-11-26T16:50:55.300Z,6.03
2022-11-26T16:53:24.281Z,6.87
2022-11-26T16:55:54.887Z,8.03
2022-11-26T16:58:30.414Z,8.17
2022-11-26T17:00:59.723Z,7.87
2022-11-26T17:03:32.948Z,7.60
2022-11-26T17:06:07.422Z,7.13
2022-11-26T17:08:36.247Z,7.63
2022-11-26T17:11:04.762Z,7.50
2022-11-26T17:13:34.556Z,6.70
2022-11-26T17:16:04.362Z,8.30
2022-11-26T17:18:33.137Z,7.03
2022-11-26T17:21:01.582Z,7.30
2022-11-26T17:23:29.942Z,9.23
2022-11-26T17:26:00.816Z,9.50
2022-11-26T17:28:29.604Z,9.57
2022-11-26T17:30:59.769Z,8.77
2022-11-26T17:33:28.217Z,8.17
2022-11-26T17:35:57.788Z,7.60
2022-11-26T17:38:26.328Z,7.50
2022-11-26T17:40:54.731Z,8.93
2022-11-26T17:43:23.133Z,8.40
2022-11-26T17:45:51.660Z,9.07
2022-11-26T17:48:25.617Z,8.70
2022-11-26T17:50:55.224Z,9.00
2022-11-26T17:53:23.586Z,8.57
2022-11-26T17:55:52.052Z,8.80
2022-11-26T17:58:20.510Z,8.67
2022-11-26T18:00:48.948Z,8.47
2022-11-26T18:03:17.326Z,8.63
2022-11-26T18:05:47.314Z,8.30
2022-11-26T18:08:15.767Z,9.30
2022-11-26T18:10:44.194Z,8.50
2022-11-26T18:13:12.571Z,9.27
2022-11-26T18:15:41.035Z,9.30
2022-11-26T18:18:09.412Z,9.37
2022-11-26T18:20:37.912Z,11.03
2022-11-26T18:23:07.696Z,11.90
2022-11-26T18:25:36.092Z,10.37
2022-11-26T18:28:04.455Z,10.77
2022-11-26T18:30:32.924Z,12.40
2022-11-26T18:33:01.754Z,11.07
2022-11-26T18:35:30.168Z,11.67
2022-11-26T18:37:58.518Z,12.30
2022-11-26T18:40:28.243Z,13.77
2022-11-26T18:42:56.643Z,12.93
2022-11-26T18:45:25.129Z,12.60
2022-11-26T18:47:53.613Z,12.63
2022-11-26T18:50:22.057Z,12.23
2022-11-26T18:52:50.520Z,12.33
2022-11-26T18:55:19.725Z,12.17
2022-11-26T18:57:49.539Z,12.70
2022-11-26T19:00:18.922Z,12.87
2022-11-26T19:02:47.425Z,11.80
2022-11-26T19:05:16.175Z,11.13
2022-11-26T19:07:44.628Z,10.73
2022-11-26T19:10:13.627Z,10.60
2022-11-26T19:12:42.065Z,9.63
2022-11-26T19:15:12.323Z,8.60
2022-11-26T19:17:40.780Z,8.47
2022-11-26T19:20:10.056Z,6.87
2022-11-26T19:22:38.615Z,6.17
2022-11-26T19:25:08.010Z,6.73
2022-11-26T19:27:36.625Z,7.63
2022-11-26T19:30:06.026Z,8.47
2022-11-26T19:32:35.973Z,8.27
2022-11-26T19:35:06.194Z,7.83
2022-11-26T19:37:34.913Z,5.93
2022-11-26T19:40:03.346Z,6.17
2022-11-26T19:42:32.728Z,5.83
2022-11-26T19:45:01.126Z,5.10
2022-11-26T19:47:29.536Z,5.37
2022-11-26T19:49:59.339Z,5.00
2022-11-26T19:52:27.780Z,5.27
2022-11-26T19:54:56.240Z,4.77
2022-11-26T19:57:24.707Z,4.60
2022-11-26T19:59:53.751Z,4.30
2022-11-26T20:02:22.289Z,5.17
2022-11-26T20:04:50.654Z,4.63
2022-11-26T20:07:20.521Z,4.90
2022-11-26T20:09:53.051Z,5.73
2022-11-26T20:12:21.583Z,6.23
2022-11-26T20:14:50.013Z,6.53
2022-11-26T20:17:18.577Z,6.30
2022-11-26T20:19:47.499Z,7.07
2022-11-26T20:22:15.948Z,5.87
2022-11-26T20:24:45.780Z,7.13
2022-11-26T20:27:14.172Z,6.97
2022-11-26T20:29:42.980Z,7.47
2022-11-26T20:32:11.382Z,7.47
2022-11-26T20:34:39.870Z,7.43
2022-11-26T20:37:08.248Z,9.03
2022-11-26T20:39:36.986Z,8.23
2022-11-26T20:42:07.076Z,9.50
2022-11-26T20:44:35.987Z,9.57
2022-11-26T20:47:04.405Z,9.80
2022-11-26T20:49:36.015Z,10.50
2022-11-26T20:52:06.494Z,10.17
2022-11-26T20:54:35.296Z,10.37
2022-11-26T20:57:03.668Z,10.60
2022-11-26T20:59:33.540Z,10.37
2022-11-26T21:02:02.038Z,9.70
2022-11-26T21:04:30.531Z,9.07
2022-11-26T21:06:58.904Z,8.97
2022-11-26T21:09:27.577Z,9.10
2022-11-26T21:11:56.330Z,8.70
2022-11-26T21:14:24.935Z,9.20
2022-11-26T21:16:54.803Z,8.40
2022-11-26T21:19:23.299Z,8.60
2022-11-26T21:21:51.713Z,8.57
2022-11-26T21:24:20.500Z,8.60
2022-11-26T21:26:48.964Z,8.23
2022-11-26T21:29:17.359Z,8.13
2022-11-26T21:31:45.719Z,8.43
2022-11-26T21:34:15.782Z,7.27
2022-11-26T21:36:44.260Z,8.53
2022-11-26T21:39:16.053Z,8.13
2022-11-26T21:41:44.470Z,8.23
2022-11-26T21:44:12.890Z,8.47
2022-11-26T21:46:41.324Z,7.70
2022-11-26T21:49:09.992Z,8.17
2022-11-26T21:51:39.843Z,8.30
2022-11-26T21:54:08.250Z,8.33
2022-11-26T21:56:36.760Z,8.50
2022-11-26T21:59:05.280Z,8.70
2022-11-26T22:01:36.354Z,8.53
2022-11-26T22:04:08.302Z,8.97
2022-11-26T22:06:37.414Z,8.40
2022-11-26T22:09:08.532Z,8.87
2022-11-26T22:11:41.201Z,7.30
2022-11-26T22:14:11.773Z,7.17
2022-11-26T22:16:40.194Z,5.97
2022-11-26T22:19:09.740Z,6.33
2022-11-26T22:21:40.464Z,5.80
2022-11-26T22:24:15.243Z,5.43
2022-11-26T22:26:44.335Z,5.17
2022-11-26T22:29:13.960Z,4.93
2022-11-26T22:31:43.833Z,6.17
2022-11-26T22:34:14.653Z,6.27
2022-11-26T22:36:44.234Z,5.20
2022-11-26T22:39:16.295Z,5.10
2022-11-26T22:41:46.127Z,5.20
2022-11-26T22:44:15.832Z,4.63
2022-11-26T22:46:45.175Z,4.93
2022-11-26T22:49:15.684Z,4.03
2022-11-26T22:51:44.639Z,5.10
2022-11-26T22:54:18.000Z,5.23
2022-11-26T22:56:47.035Z,5.43
2022-11-26T22:59:16.070Z,6.20
2022-11-26T23:01:44.771Z,6.43
2022-11-26T23:04:13.535Z,6.10
2022-11-26T23:06:57.793Z,6.03
2022-11-26T23:09:26.298Z,6.73
2022-11-26T23:11:55.119Z,7.40
2022-11-26T23:14:23.698Z,7.80
2022-11-26T23:16:52.229Z,6.67
2022-11-26T23:19:20.741Z,5.97
2022-11-26T23:21:49.951Z,7.43
2022-11-26T23:24:19.909Z,7.93
2022-11-26T23:26:48.620Z,8.20
2022-11-26T23:29:17.110Z,8.50
2022-11-26T23:31:46.090Z,8.33
2022-11-26T23:34:15.324Z,8.87
2022-11-26T23:36:44.053Z,9.13
2022-11-26T23:39:13.806Z,9.13
2022-11-26T23:41:44.744Z,9.47
2022-11-26T23:44:13.228Z,10.13
2022-11-26T23:46:41.818Z,9.87
2022-11-26T23:49:10.342Z,9.50
2022-11-26T23:51:39.041Z,10.03
2022-11-26T23:54:07.537Z,10.93
2022-11-26T23:56:36.730Z,10.73
2022-11-26T23:59:07.088Z,10.73
